Time;durP1;ratioP1;P1;durP2;ratioP2;P2;SDS_P1;SDS_P2;PMS_P1;PMS_P2;Temp;Humidity;BMP_temperature;BMP_pressure;BME280_temperature;BME280_humidity;BME280_pressure;Samples;Min_cycle;Max_cycle;Signal;HPM_P1;HPM_P2
2021/01/31 00:00:29;;;;;;;9.30;3.30;;;26.70;67.60;;;;;;4154532;28;19951;-57
2021/01/31 00:02:31;;;;;;;7.28;2.78;;;26.70;67.50;;;;;;4146675;28;20071;-55
2021/01/31 00:04:33;;;;;;;6.43;2.50;;;26.70;67.60;;;;;;4150050;28;20167;-57
2021/01/31 00:06:35;;;;;;;7.50;2.30;;;26.70;67.60;;;;;;4154168;28;20479;-57
2021/01/31 00:08:37;;;;;;;4.72;1.90;;;26.70;67.70;;;;;;4151610;28;20029;-58
2021/01/31 00:10:40;;;;;;;6.55;2.03;;;26.60;67.60;;;;;;4151562;28;20116;-57
2021/01/31 00:12:42;;;;;;;8.20;2.83;;;26.60;67.70;;;;;;4165514;28;20041;-57
2021/01/31 00:14:44;;;;;;;10.00;3.00;;;26.60;67.60;;;;;;4152088;28;20083;-57
2021/01/31 00:16:46;;;;;;;6.38;2.75;;;26.60;67.60;;;;;;4161525;28;20128;-56
2021/01/31 00:18:48;;;;;;;6.95;2.60;;;26.60;67.50;;;;;;4153896;28;20021;-57
2021/01/31 00:20:54;;;;;;;7.97;2.90;;;26.60;67.60;;;;;;4151221;28;20479;-58
2021/01/31 00:22:56;;;;;;;6.57;2.95;;;26.70;67.60;;;;;;4152795;28;20052;-58
2021/01/31 00:24:58;;;;;;;6.40;2.97;;;26.60;67.50;;;;;;4147680;28;20442;-57
2021/01/31 00:27:00;;;;;;;7.80;3.38;;;26.60;67.50;;;;;;4146229;28;20444;-58
2021/01/31 00:29:03;;;;;;;6.25;2.78;;;26.60;67.50;;;;;;4145153;28;20034;-57
2021/01/31 00:31:05;;;;;;;6.78;2.28;;;26.60;67.50;;;;;;4153925;28;20439;-58
2021/01/31 00:33:28;;;;;;;4.30;2.10;;;26.60;67.50;;;;;;4146853;28;20120;-58
2021/01/31 00:35:33;;;;;;;5.63;2.23;;;26.60;67.50;;;;;;4153928;28;21113;-58
2021/01/31 00:37:35;;;;;;;4.60;2.03;;;26.60;67.60;;;;;;4150382;28;20131;-58
2021/01/31 00:39:37;;;;;;;4.80;1.93;;;26.60;67.60;;;;;;4151333;28;20092;-59
2021/01/31 00:41:40;;;;;;;7.00;2.17;;;26.50;67.50;;;;;;4152288;28;20052;-58
2021/01/31 00:43:42;;;;;;;6.95;2.40;;;26.60;68.20;;;;;;4151115;28;20117;-58
2021/01/31 00:45:44;;;;;;;6.07;2.63;;;26.60;67.60;;;;;;4150985;28;20114;-57
2021/01/31 00:47:47;;;;;;;6.07;2.50;;;26.60;67.50;;;;;;4149250;28;20053;-56
2021/01/31 00:49:50;;;;;;;4.78;2.25;;;26.60;67.50;;;;;;4146540;28;20490;-57
2021/01/31 00:51:52;;;;;;;5.28;2.50;;;26.60;67.40;;;;;;4160610;28;20033;-57
2021/01/31 00:53:54;;;;;;;4.68;2.33;;;26.60;67.40;;;;;;4146840;28;20452;-58
2021/01/31 00:55:57;;;;;;;6.18;2.70;;;26.60;67.30;;;;;;4151999;28;20445;-58
2021/01/31 00:57:59;;;;;;;5.70;2.65;;;26.60;67.30;;;;;;4152048;28;20120;-58
2021/01/31 01:00:01;;;;;;;7.40;3.07;;;26.60;67.20;;;;;;4144245;28;20064;-57
2021/01/31 01:02:14;;;;;;;5.47;2.85;;;26.60;67.20;;;;;;4147456;28;20687;-58
2021/01/31 01:04:16;;;;;;;5.43;2.53;;;26.60;67.20;;;;;;4147016;28;20036;-57
2021/01/31 01:06:18;;;;;;;5.35;2.15;;;26.60;67.20;;;;;;4151549;28;20136;-58
2021/01/31 01:08:20;;;;;;;4.17;1.63;;;26.60;67.20;;;;;;4146240;28;20030;-57
2021/01/31 01:10:28;;;;;;;3.03;1.67;;;26.60;67.30;;;;;;4150412;28;20060;-58
2021/01/31 01:12:30;;;;;;;5.18;2.20;;;26.60;67.30;;;;;;4151293;28;20034;-57
2021/01/31 01:14:34;;;;;;;7.00;2.70;;;26.60;67.30;;;;;;4149740;28;20041;-57
2021/01/31 01:16:36;;;;;;;6.13;2.78;;;26.60;67.20;;;;;;4140517;28;20055;-58
2021/01/31 01:18:39;;;;;;;5.03;2.97;;;26.60;67.20;;;;;;4151306;28;20040;-59
2021/01/31 01:20:41;;;;;;;6.88;2.83;;;26.60;67.20;;;;;;4146655;28;20274;-55
2021/01/31 01:22:43;;;;;;;6.03;2.55;;;26.60;67.10;;;;;;4150693;28;20053;-58
2021/01/31 01:24:52;;;;;;;6.50;3.08;;;26.60;67.10;;;;;;4151152;28;20387;-58
2021/01/31 01:26:54;;;;;;;6.05;2.70;;;26.60;67.10;;;;;;4153555;28;20029;-57
2021/01/31 01:28:56;;;;;;;4.47;2.47;;;26.60;67.20;;;;;;4154189;28;20029;-58
2021/01/31 01:30:58;;;;;;;4.15;2.20;;;26.60;67.20;;;;;;4158191;28;20025;-58
2021/01/31 01:33:02;;;;;;;5.25;2.30;;;26.60;67.30;;;;;;4153015;28;20032;-57
2021/01/31 01:35:08;;;;;;;5.40;2.40;;;26.50;67.20;;;;;;4151721;28;20045;-57
2021/01/31 01:37:14;;;;;;;5.57;1.60;;;26.50;67.30;;;;;;4162422;28;20607;-57
2021/01/31 01:39:16;;;;;;;5.53;2.67;;;26.50;67.30;;;;;;4152503;28;20119;-58
2021/01/31 01:41:19;;;;;;;7.28;2.83;;;26.50;67.30;;;;;;4144734;28;20092;-58
2021/01/31 01:43:22;;;;;;;8.35;3.22;;;26.50;67.30;;;;;;4153565;28;20383;-57
2021/01/31 01:45:25;;;;;;;6.30;2.63;;;26.50;67.20;;;;;;4156308;28;20025;-56
2021/01/31 01:47:28;;;;;;;;;;;26.50;67.20;;;;;;4153369;28;20045;-56
2021/01/31 01:49:36;;;;;;;7.22;2.67;;;26.50;67.20;;;;;;4155338;28;19921;-58
2021/01/31 01:51:47;;;;;;;8.13;3.30;;;26.50;67.20;;;;;;4148475;28;20709;-55
2021/01/31 01:53:49;;;;;;;6.38;2.97;;;26.50;67.30;;;;;;4152942;28;20072;-58
2021/01/31 01:56:19;;;;;;;5.63;2.90;;;26.50;67.40;;;;;;4146974;28;20061;-57
2021/01/31 01:58:22;;;;;;;6.72;2.75;;;26.50;67.30;;;;;;4140063;28;20443;-57
2021/01/31 02:00:25;;;;;;;4.65;2.10;;;26.50;67.40;;;;;;4151945;28;20070;-57
2021/01/31 02:02:38;;;;;;;4.75;2.15;;;26.50;67.40;;;;;;4154686;28;20122;-56
2021/01/31 02:04:42;;;;;;;4.93;1.98;;;26.50;67.50;;;;;;4150947;28;20026;-55
2021/01/31 02:06:44;;;;;;;4.95;2.00;;;26.50;67.90;;;;;;4157409;28;20276;-56
2021/01/31 02:08:46;;;;;;;3.47;2.00;;;26.50;67.50;;;;;;4147456;28;20140;-57
2021/01/31 02:10:49;;;;;;;4.35;1.90;;;26.40;67.30;;;;;;4147024;28;20119;-55
2021/01/31 02:12:55;;;;;;;5.63;1.83;;;26.40;67.40;;;;;;4153022;28;20052;-57
2021/01/31 02:15:01;;;;;;;4.97;2.00;;;26.40;67.30;;;;;;4148150;28;20065;-56
2021/01/31 02:17:10;;;;;;;6.03;3.03;;;26.50;67.40;;;;;;4152921;28;20036;-57
2021/01/31 02:19:48;;;;;;;8.23;3.20;;;26.40;67.20;;;;;;4155125;28;20025;-58
2021/01/31 02:22:30;;;;;;;6.45;3.17;;;26.50;67.20;;;;;;4153794;28;20056;-57
2021/01/31 02:25:09;;;;;;;5.50;2.10;;;26.50;67.20;;;;;;4146479;28;20483;-56
2021/01/31 02:27:51;;;;;;;5.40;1.92;;;26.50;67.20;;;;;;4151017;28;20041;-57
2021/01/31 02:30:29;;;;;;;5.45;2.03;;;26.50;67.30;;;;;;4150200;28;20029;-56
2021/01/31 02:32:34;;;;;;;7.80;2.90;;;26.40;67.10;;;;;;4149500;28;20140;-57
2021/01/31 02:34:52;;;;;;;10.45;3.17;;;26.40;66.90;;;;;;4147607;28;20055;-58
2021/01/31 02:37:23;;;;;;;6.00;2.55;;;26.40;66.70;;;;;;4153813;28;20076;-58
2021/01/31 02:39:31;;;;;;;6.13;2.60;;;26.40;66.70;;;;;;4155550;28;20476;-59
2021/01/31 02:42:05;;;;;;;7.70;2.30;;;26.50;66.70;;;;;;4142861;28;20513;-57
2021/01/31 02:44:11;;;;;;;7.60;2.97;;;26.40;66.60;;;;;;4133426;28;20101;-57
2021/01/31 02:46:32;;;;;;;10.55;3.33;;;26.40;66.60;;;;;;4144464;28;20039;-56
2021/01/31 02:49:00;;;;;;;8.13;2.80;;;26.50;66.60;;;;;;4150662;28;20037;-57
2021/01/31 02:51:15;;;;;;;6.22;2.30;;;26.50;66.70;;;;;;4152079;28;20038;-58
2021/01/31 02:53:35;;;;;;;3.88;2.05;;;26.50;66.70;;;;;;4151749;28;20078;-58
2021/01/31 02:55:45;;;;;;;6.20;2.35;;;26.40;67.30;;;;;;4152623;28;20040;-57
2021/01/31 02:57:53;;;;;;;4.53;1.88;;;26.40;66.70;;;;;;4158176;28;20044;-54
2021/01/31 03:00:19;;;;;;;5.15;1.92;;;26.40;66.70;;;;;;4150041;28;20368;-57
2021/01/31 03:02:46;;;;;;;4.70;2.28;;;26.40;66.70;;;;;;4153860;28;20053;-58
2021/01/31 03:05:07;;;;;;;6.70;2.78;;;26.40;66.40;;;;;;4150693;28;20038;-58
2021/01/31 03:07:18;;;;;;;7.20;2.83;;;26.40;66.30;;;;;;4153877;28;20045;-57
2021/01/31 03:09:53;;;;;;;7.60;2.63;;;26.50;66.30;;;;;;4148001;28;20423;-58
2021/01/31 03:12:04;;;;;;;9.57;3.13;;;26.50;66.20;;;;;;4155180;28;20041;-56
2021/01/31 03:14:20;;;;;;;7.55;2.58;;;26.50;66.10;;;;;;4148129;28;20125;-58
2021/01/31 03:16:33;;;;;;;6.57;2.00;;;26.50;66.20;;;;;;4152621;28;20032;-58
2021/01/31 03:18:44;;;;;;;7.88;2.60;;;26.50;66.40;;;;;;4155054;28;20029;-58
2021/01/31 03:20:58;;;;;;;3.53;1.90;;;26.50;66.40;;;;;;4150668;28;20038;-57
2021/01/31 03:23:48;;;;;;;3.53;1.92;;;26.50;67.10;;;;;;4156663;28;20049;-57
2021/01/31 03:26:15;;;;;;;4.43;2.25;;;26.40;66.50;;;;;;4142475;28;20501;-57
2021/01/31 03:28:17;;;;;;;4.88;2.17;;;26.40;66.20;;;;;;4154665;28;20401;-53
2021/01/31 03:30:19;;;;;;;4.90;2.47;;;26.40;66.10;;;;;;4150639;28;20044;-56
2021/01/31 03:32:32;;;;;;;5.93;2.60;;;26.40;66.00;;;;;;4151128;28;20576;-58
2021/01/31 03:34:59;;;;;;;7.07;2.88;;;26.40;66.00;;;;;;4150444;28;20263;-57
2021/01/31 03:37:04;;;;;;;7.10;2.50;;;26.50;66.00;;;;;;4146183;28;20068;-56
2021/01/31 03:39:07;;;;;;;8.25;2.70;;;26.40;65.90;;;;;;4158598;28;20037;-57
2021/01/31 03:41:13;;;;;;;8.15;2.75;;;26.40;65.90;;;;;;4148304;28;20509;-58
2021/01/31 03:43:16;;;;;;;7.50;2.80;;;26.50;65.90;;;;;;4145182;28;20397;-56
2021/01/31 03:45:26;;;;;;;5.40;2.15;;;26.40;65.80;;;;;;4151166;28;20474;-57
2021/01/31 03:47:39;;;;;;;7.10;2.80;;;26.40;65.70;;;;;;4151046;28;20044;-58
2021/01/31 03:49:49;;;;;;;4.67;2.30;;;26.40;65.70;;;;;;4149358;28;20041;-58
2021/01/31 03:51:51;;;;;;;5.68;2.33;;;26.50;65.80;;;;;;4141995;28;20252;-58
2021/01/31 03:53:54;;;;;;;7.53;3.05;;;26.50;65.80;;;;;;4153059;28;20070;-57
2021/01/31 03:55:57;;;;;;;7.57;2.80;;;26.40;65.70;;;;;;4158716;28;20029;-56
2021/01/31 03:58:06;;;;;;;8.38;2.53;;;26.50;65.70;;;;;;4153371;28;20471;-57
2021/01/31 04:00:20;;;;;;;5.85;2.22;;;26.50;66.00;;;;;;4147308;28;20561;-58
2021/01/31 04:02:27;;;;;;;4.72;1.85;;;26.40;66.50;;;;;;4149812;28;20046;-57
2021/01/31 04:04:47;;;;;;;4.05;1.80;;;26.40;65.90;;;;;;4148774;28;20032;-58
2021/01/31 04:06:53;;;;;;;6.55;2.20;;;26.40;66.00;;;;;;4142910;28;20034;-57
2021/01/31 04:08:58;;;;;;;5.85;2.50;;;26.40;65.90;;;;;;4146394;28;20531;-57
2021/01/31 04:11:00;;;;;;;4.88;2.10;;;26.40;65.70;;;;;;4149491;28;20340;-57
2021/01/31 04:13:04;;;;;;;7.43;2.58;;;26.40;65.70;;;;;;4152724;28;20028;-57
2021/01/31 04:15:33;;;;;;;6.22;2.30;;;26.40;65.60;;;;;;4151578;28;20169;-55
2021/01/31 04:17:35;;;;;;;4.95;2.22;;;26.40;65.50;;;;;;4153120;28;20513;-57
2021/01/31 04:19:37;;;;;;;7.10;2.40;;;26.50;65.40;;;;;;4152286;28;20103;-56
2021/01/31 04:21:39;;;;;;;5.85;2.60;;;26.50;65.50;;;;;;4153224;28;20045;-58
2021/01/31 04:23:42;;;;;;;6.00;2.40;;;26.50;66.20;;;;;;4150323;28;20129;-54
2021/01/31 04:25:44;;;;;;;;;;;26.50;65.50;;;;;;4157001;28;20656;-57
2021/01/31 04:27:47;;;;;;;8.25;3.00;;;26.50;65.50;;;;;;4151396;28;19913;-58
2021/01/31 04:29:49;;;;;;;5.72;2.70;;;26.50;65.50;;;;;;4152038;28;20033;-57
2021/01/31 04:31:51;;;;;;;5.82;2.47;;;26.50;65.50;;;;;;4148089;28;20595;-54
2021/01/31 04:33:53;;;;;;;5.70;2.60;;;26.50;65.50;;;;;;4156520;28;20029;-58
2021/01/31 04:35:56;;;;;;;7.80;2.65;;;26.50;65.60;;;;;;4150734;28;20608;-57
2021/01/31 04:37:58;;;;;;;5.03;2.63;;;26.50;65.50;;;;;;4159517;28;20398;-57
2021/01/31 04:40:01;;;;;;;6.38;2.30;;;26.50;65.60;;;;;;4150175;28;20086;-59
2021/01/31 04:42:04;;;;;;;5.00;2.30;;;26.60;65.60;;;;;;4146595;28;20128;-57
2021/01/31 04:44:10;;;;;;;7.88;2.72;;;26.60;65.50;;;;;;4149967;28;20047;-58
2021/01/31 04:46:20;;;;;;;5.68;2.40;;;26.60;65.30;;;;;;4152089;28;20025;-58
2021/01/31 04:48:31;;;;;;;7.30;2.40;;;26.70;65.20;;;;;;4145136;28;20637;-57
2021/01/31 04:50:55;;;;;;;5.72;2.30;;;26.80;65.00;;;;;;4148492;28;20372;-55
2021/01/31 04:53:16;;;;;;;6.43;2.55;;;26.80;64.80;;;;;;4150496;28;20033;-55
2021/01/31 04:55:33;;;;;;;6.28;2.65;;;26.80;64.80;;;;;;4147736;28;20030;-56
2021/01/31 04:57:49;;;;;;;6.88;2.85;;;26.90;64.70;;;;;;4151388;28;20072;-56
2021/01/31 04:59:51;;;;;;;4.85;2.20;;;26.90;64.70;;;;;;4153172;28;20037;-57
2021/01/31 05:02:07;;;;;;;5.25;2.30;;;26.90;64.70;;;;;;4148649;28;20037;-56
2021/01/31 05:04:15;;;;;;;7.10;2.85;;;26.90;64.70;;;;;;4154490;28;20471;-56
2021/01/31 05:06:18;;;;;;;9.23;2.40;;;26.90;64.60;;;;;;4157874;28;20511;-56
2021/01/31 05:08:28;;;;;;;6.97;2.70;;;26.90;64.60;;;;;;4154924;28;20080;-57
2021/01/31 05:10:30;;;;;;;6.03;2.67;;;26.90;64.70;;;;;;4158657;28;20030;-57
2021/01/31 05:12:50;;;;;;;4.40;2.13;;;26.80;64.60;;;;;;4173907;28;20033;-55
2021/01/31 05:14:56;;;;;;;6.68;2.70;;;26.80;64.60;;;;;;4153347;28;20117;-56
2021/01/31 05:16:58;;;;;;;6.65;2.60;;;26.80;64.50;;;;;;4160942;28;20043;-58
2021/01/31 05:19:05;;;;;;;6.82;3.10;;;26.80;64.60;;;;;;4157791;28;20419;-57
2021/01/31 05:21:11;;;;;;;5.55;2.40;;;26.80;64.70;;;;;;4155024;28;20120;-57
2021/01/31 05:23:14;;;;;;;4.15;1.90;;;26.80;64.70;;;;;;4165414;28;20048;-58
2021/01/31 05:25:24;;;;;;;4.85;2.13;;;26.80;64.80;;;;;;4153528;28;20042;-57
2021/01/31 05:27:31;;;;;;;5.03;2.17;;;26.80;64.90;;;;;;4147329;28;20053;-58
2021/01/31 05:29:36;;;;;;;3.53;1.45;;;26.80;64.90;;;;;;4155137;28;20119;-59
2021/01/31 05:31:39;;;;;;;3.47;1.50;;;26.80;64.90;;;;;;4153792;28;20571;-58
2021/01/31 05:34:10;;;;;;;4.78;2.05;;;26.80;65.00;;;;;;4156169;28;20028;-56
2021/01/31 05:36:18;;;;;;;4.63;2.30;;;26.70;64.80;;;;;;4149917;28;20056;-59
2021/01/31 05:38:40;;;;;;;6.78;2.35;;;26.80;64.90;;;;;;4150621;28;20864;-56
2021/01/31 05:40:46;;;;;;;4.93;2.03;;;26.70;64.80;;;;;;4154059;28;20038;-57
2021/01/31 05:42:48;;;;;;;6.20;2.30;;;26.70;64.70;;;;;;4151505;28;20128;-57
2021/01/31 05:45:07;;;;;;;4.43;2.20;;;26.80;64.80;;;;;;4145733;28;20503;-58
2021/01/31 05:47:37;;;;;;;3.75;2.00;;;26.70;64.80;;;;;;4164784;28;20049;-57
2021/01/31 05:49:48;;;;;;;5.07;2.20;;;26.70;64.80;;;;;;4151047;28;20770;-57
2021/01/31 05:51:50;;;;;;;5.35;2.40;;;26.70;64.80;;;;;;4155783;28;20486;-58
2021/01/31 05:53:52;;;;;;;5.82;2.38;;;26.70;64.80;;;;;;4147442;28;20882;-58
2021/01/31 05:56:30;;;;;;;5.45;2.25;;;26.70;64.80;;;;;;4151424;28;20123;-56
2021/01/31 05:58:32;;;;;;;6.35;2.67;;;26.70;64.70;;;;;;4150804;28;20453;-58
2021/01/31 06:00:34;;;;;;;6.55;2.90;;;26.70;64.80;;;;;;4149169;28;20067;-58
2021/01/31 06:02:36;;;;;;;6.47;2.55;;;26.70;64.70;;;;;;4150812;28;20060;-58
2021/01/31 06:04:39;;;;;;;5.53;2.53;;;26.70;64.70;;;;;;4141068;28;20028;-54
2021/01/31 06:06:43;;;;;;;6.38;3.05;;;26.70;64.70;;;;;;4154481;28;20220;-58
2021/01/31 06:08:52;;;;;;;4.20;2.25;;;26.70;64.70;;;;;;4146185;28;20709;-55
2021/01/31 06:11:09;;;;;;;4.07;1.92;;;26.70;64.80;;;;;;4151764;28;20048;-58
2021/01/31 06:13:29;;;;;;;4.57;2.00;;;26.70;65.00;;;;;;4154158;28;20033;-57
2021/01/31 06:15:38;;;;;;;2.80;1.50;;;26.70;65.00;;;;;;4143837;28;20059;-56
2021/01/31 06:17:41;;;;;;;3.92;1.65;;;26.70;65.00;;;;;;4151370;28;20042;-58
2021/01/31 06:19:45;;;;;;;5.40;2.13;;;26.70;65.10;;;;;;4156742;28;20112;-58
2021/01/31 06:21:47;;;;;;;4.28;2.00;;;26.70;65.00;;;;;;4155968;28;20684;-58
2021/01/31 06:23:52;;;;;;;4.90;2.53;;;26.70;64.90;;;;;;4152557;28;20037;-57
2021/01/31 06:25:54;;;;;;;4.57;2.30;;;26.60;64.90;;;;;;4142683;28;20102;-57
2021/01/31 06:28:21;;;;;;;4.53;2.00;;;26.70;65.00;;;;;;4151558;28;20199;-57
2021/01/31 06:30:31;;;;;;;3.88;2.10;;;26.70;65.00;;;;;;4146937;28;20038;-58
2021/01/31 06:32:36;;;;;;;5.90;2.63;;;26.60;64.90;;;;;;4148571;28;20037;-56
2021/01/31 06:34:46;;;;;;;6.75;2.13;;;26.60;64.80;;;;;;4158635;28;20017;-58
2021/01/31 06:37:19;;;;;;;4.63;1.85;;;26.60;64.80;;;;;;4154162;28;20048;-57
2021/01/31 06:39:35;;;;;;;6.93;2.40;;;26.60;64.80;;;;;;4149951;28;20342;-56
2021/01/31 06:41:55;;;;;;;5.13;2.22;;;26.60;64.80;;;;;;4148377;28;20482;-56
2021/01/31 06:44:18;;;;;;;8.40;2.35;;;26.60;64.90;;;;;;4142048;28;20064;-57
2021/01/31 06:46:23;;;;;;;7.10;2.43;;;26.60;64.80;;;;;;4153289;28;20059;-55
2021/01/31 06:48:28;;;;;;;5.13;2.33;;;26.60;64.80;;;;;;4146656;28;20037;-56
2021/01/31 06:50:33;;;;;;;6.70;2.50;;;26.60;64.80;;;;;;4155353;28;20084;-57
2021/01/31 06:53:02;;;;;;;6.30;2.65;;;26.60;64.80;;;;;;4161428;28;20021;-57
2021/01/31 06:55:25;;;;;;;6.60;2.83;;;26.50;64.70;;;;;;4159979;28;20456;-58
2021/01/31 06:57:51;;;;;;;10.80;3.13;;;26.50;64.60;;;;;;4151746;28;20047;-57
2021/01/31 07:00:20;;;;;;;5.95;2.45;;;26.50;64.50;;;;;;4143119;28;20026;-57
2021/01/31 07:03:04;;;;;;;5.82;1.92;;;26.50;64.80;;;;;;4152287;28;20061;-56
2021/01/31 07:05:06;;;;;;;3.65;1.95;;;26.50;64.80;;;;;;4147036;28;20211;-58
2021/01/31 07:07:26;;;;;;;5.68;2.17;;;26.50;65.00;;;;;;4151914;28;20048;-56
2021/01/31 07:09:58;;;;;;;7.30;2.95;;;26.50;65.10;;;;;;4153762;28;20037;-55
2021/01/31 07:12:35;;;;;;;8.65;3.22;;;26.50;65.10;;;;;;4148229;28;20037;-56
2021/01/31 07:15:15;;;;;;;8.43;3.22;;;26.50;65.20;;;;;;4137874;28;20049;-56
2021/01/31 07:17:32;;;;;;;4.97;2.70;;;26.50;65.10;;;;;;4149767;28;20041;-56
2021/01/31 07:19:54;;;;;;;4.25;2.10;;;26.50;65.20;;;;;;4143208;28;20038;-54
2021/01/31 07:22:03;;;;;;;5.53;1.90;;;26.40;65.20;;;;;;4154162;28;20470;-56
2021/01/31 07:24:15;;;;;;;4.93;2.30;;;26.40;65.40;;;;;;4141396;28;20053;-58
2021/01/31 07:26:33;;;;;;;8.85;3.20;;;26.40;65.50;;;;;;4146172;28;20042;-58
2021/01/31 07:28:39;;;;;;;8.25;3.40;;;26.40;65.60;;;;;;4147279;28;20118;-56
2021/01/31 07:31:02;;;;;;;6.07;2.80;;;26.40;65.70;;;;;;4151246;28;20027;-56
2021/01/31 07:33:36;;;;;;;4.65;2.03;;;26.40;65.60;;;;;;4149519;28;20126;-58
2021/01/31 07:35:54;;;;;;;4.63;1.75;;;26.40;65.60;;;;;;4145358;28;20041;-55
2021/01/31 07:38:23;;;;;;;2.92;1.60;;;26.40;65.60;;;;;;4149832;28;20052;-56
2021/01/31 07:40:26;;;;;;;6.40;2.80;;;26.40;65.60;;;;;;4146847;28;20048;-57
2021/01/31 07:42:31;;;;;;;6.47;2.50;;;26.40;65.60;;;;;;4149827;28;20041;-57
2021/01/31 07:44:36;;;;;;;9.25;2.97;;;26.40;65.60;;;;;;4150186;28;20281;-54
2021/01/31 07:46:39;;;;;;;6.97;2.47;;;26.40;65.60;;;;;;4149588;28;20128;-55
2021/01/31 07:48:44;;;;;;;9.30;2.83;;;26.40;65.50;;;;;;4146487;28;20112;-55
2021/01/31 07:50:46;;;;;;;5.45;2.15;;;26.40;65.40;;;;;;4146263;28;20152;-57
2021/01/31 07:52:57;;;;;;;8.02;2.55;;;26.40;65.30;;;;;;4146693;28;20073;-59
2021/01/31 07:55:22;;;;;;;6.65;2.60;;;26.40;65.40;;;;;;4145304;28;20475;-58
2021/01/31 07:57:37;;;;;;;10.68;2.97;;;26.40;65.50;;;;;;4146086;28;20283;-55
2021/01/31 07:59:40;;;;;;;7.28;2.70;;;26.40;65.90;;;;;;4142225;28;20056;-55
2021/01/31 08:01:43;;;;;;;;;;;26.40;66.20;;;;;;4141700;28;20086;-49
2021/01/31 08:03:45;;;;;;;11.02;2.25;;;26.30;66.20;;;;;;4138144;28;19932;-49
2021/01/31 08:06:01;;;;;;;7.88;2.17;;;26.30;66.40;;;;;;4141920;28;20125;-50
2021/01/31 08:08:07;;;;;;;6.65;1.80;;;26.40;66.80;;;;;;4153155;28;20033;-48
2021/01/31 08:10:09;;;;;;;7.05;1.70;;;26.40;67.30;;;;;;4152390;28;20056;-48
2021/01/31 08:12:15;;;;;;;5.95;1.23;;;26.40;67.20;;;;;;4154480;28;20060;-48
2021/01/31 08:14:54;;;;;;;6.20;1.75;;;26.40;67.10;;;;;;4149376;28;20067;-47
2021/01/31 08:16:56;;;;;;;4.00;1.25;;;26.40;67.60;;;;;;4153275;28;20044;-50
2021/01/31 08:19:10;;;;;;;6.47;1.40;;;26.50;67.90;;;;;;4150234;28;20042;-47
2021/01/31 08:21:50;;;;;;;5.85;1.58;;;26.50;67.90;;;;;;4148630;28;20803;-49
2021/01/31 08:23:52;;;;;;;7.78;1.65;;;26.50;67.90;;;;;;4149406;28;20164;-46
2021/01/31 08:26:01;;;;;;;4.03;1.70;;;26.60;68.00;;;;;;4148666;28;20251;-48
2021/01/31 08:28:03;;;;;;;6.40;1.70;;;26.60;68.10;;;;;;4147216;28;20510;-48
2021/01/31 08:30:28;;;;;;;3.90;1.60;;;26.60;68.10;;;;;;4147690;28;20636;-50
2021/01/31 08:32:30;;;;;;;6.05;1.95;;;26.70;68.10;;;;;;4144711;28;20541;-48
2021/01/31 08:35:17;;;;;;;5.40;1.88;;;26.70;67.90;;;;;;4147314;28;20338;-52
2021/01/31 08:37:23;;;;;;;7.13;2.00;;;26.70;67.80;;;;;;4142332;28;20041;-48
2021/01/31 08:39:31;;;;;;;6.93;2.13;;;26.70;68.30;;;;;;4143633;28;20065;-53
2021/01/31 08:41:37;;;;;;;8.38;2.10;;;26.70;67.70;;;;;;4143574;28;20482;-53
2021/01/31 08:43:48;;;;;;;4.97;2.00;;;26.70;67.80;;;;;;4149089;28;20144;-59
2021/01/31 08:45:50;;;;;;;6.07;2.17;;;26.70;67.70;;;;;;4149329;28;20505;-61
2021/01/31 08:47:53;;;;;;;8.65;2.22;;;26.80;67.70;;;;;;4145989;28;20037;-53
2021/01/31 08:49:59;;;;;;;5.65;2.10;;;26.80;67.70;;;;;;4145606;28;20042;-55
2021/01/31 08:52:06;;;;;;;6.85;2.15;;;26.80;67.80;;;;;;4150015;28;20118;-55
2021/01/31 08:54:11;;;;;;;7.20;2.33;;;26.80;67.80;;;;;;4146719;28;20154;-48
2021/01/31 08:56:31;;;;;;;5.63;2.17;;;26.80;67.70;;;;;;4146785;28;20030;-47
2021/01/31 08:58:33;;;;;;;6.38;1.98;;;26.80;67.70;;;;;;4143040;28;20846;-53
2021/01/31 09:00:37;;;;;;;8.68;1.90;;;26.80;67.70;;;;;;4147149;28;20030;-54
2021/01/31 09:02:42;;;;;;;;;;;26.80;67.70;;;;;;4144732;28;20045;-54
2021/01/31 09:05:15;;;;;;;6.35;2.25;;;26.80;67.50;;;;;;4146767;28;19917;-57
2021/01/31 09:07:32;;;;;;;9.27;1.95;;;26.80;67.50;;;;;;4152234;28;20040;-56
2021/01/31 09:09:41;;;;;;;15.85;2.20;;;26.90;67.90;;;;;;4145903;28;20033;-57
2021/01/31 09:11:44;;;;;;;9.73;2.05;;;26.80;67.10;;;;;;4147697;28;20044;-55
2021/01/31 09:13:46;;;;;;;6.70;1.63;;;26.80;67.20;;;;;;4146559;28;20407;-54
2021/01/31 09:15:48;;;;;;;4.53;1.50;;;26.80;67.10;;;;;;4148106;28;20506;-59
2021/01/31 09:17:51;;;;;;;5.03;1.30;;;26.80;67.10;;;;;;4146624;28;20113;-58
2021/01/31 09:20:07;;;;;;;;;;;26.80;67.00;;;;;;4144576;28;20490;-58
2021/01/31 09:22:12;;;;;;;5.13;1.50;;;26.80;67.10;;;;;;4141941;28;19975;-58
2021/01/31 09:24:18;;;;;;;7.20;1.70;;;26.80;67.10;;;;;;4142926;28;20034;-58
2021/01/31 09:26:21;;;;;;;5.60;1.73;;;26.80;67.10;;;;;;4150277;28;20088;-58
2021/01/31 09:28:26;;;;;;;4.32;1.80;;;26.80;67.10;;;;;;4143313;28;20043;-54
2021/01/31 09:30:29;;;;;;;3.35;1.50;;;26.80;67.10;;;;;;4141385;28;20028;-55
2021/01/31 09:32:39;;;;;;;9.48;1.98;;;26.80;67.10;;;;;;4147265;28;20484;-57
2021/01/31 09:34:41;;;;;;;14.70;2.22;;;26.80;67.10;;;;;;4140215;28;20045;-49
2021/01/31 09:36:44;;;;;;;7.77;1.80;;;26.80;67.20;;;;;;4149120;28;20778;-54
2021/01/31 09:38:47;;;;;;;4.35;1.50;;;26.80;67.20;;;;;;4143983;28;20271;-50
2021/01/31 09:40:53;;;;;;;7.70;2.33;;;26.80;67.20;;;;;;4144936;28;20041;-59
2021/01/31 09:42:55;;;;;;;11.13;2.10;;;26.80;67.30;;;;;;4142392;28;20041;-57
2021/01/31 09:45:02;;;;;;;4.70;1.85;;;26.80;67.20;;;;;;4147004;28;20041;-57
2021/01/31 09:47:05;;;;;;;5.93;1.70;;;26.80;67.00;;;;;;4143166;28;20082;-52
2021/01/31 09:49:11;;;;;;;7.93;1.77;;;26.80;66.80;;;;;;4149030;28;20022;-50
2021/01/31 09:51:27;;;;;;;10.05;1.90;;;26.80;67.00;;;;;;4141822;28;20080;-51
2021/01/31 09:53:39;;;;;;;9.43;2.38;;;26.80;67.10;;;;;;4150246;28;20040;-54
2021/01/31 09:55:43;;;;;;;6.88;1.70;;;26.80;67.10;;;;;;4141824;28;20475;-56
2021/01/31 09:57:47;;;;;;;3.22;1.33;;;26.80;66.90;;;;;;4144282;28;20156;-49
2021/01/31 10:00:09;;;;;;;6.07;1.50;;;26.80;66.80;;;;;;4144040;28;20515;-57
2021/01/31 10:02:22;;;;;;;5.38;1.40;;;26.80;66.80;;;;;;4143810;28;20076;-58
2021/01/31 10:04:26;;;;;;;4.63;1.30;;;26.80;67.00;;;;;;4148916;28;20454;-57
2021/01/31 10:06:41;;;;;;;15.38;1.73;;;26.80;67.00;;;;;;4147333;28;20134;-54
2021/01/31 10:08:58;;;;;;;4.30;1.45;;;26.80;67.00;;;;;;4147755;28;20407;-54
2021/01/31 10:11:31;;;;;;;3.65;1.25;;;26.80;66.90;;;;;;4138705;28;20037;-54
2021/01/31 10:13:33;;;;;;;4.53;1.15;;;26.80;66.70;;;;;;4143217;28;20859;-56
2021/01/31 10:15:38;;;;;;;2.95;1.10;;;26.80;66.70;;;;;;4141731;28;20359;-56
2021/01/31 10:17:45;;;;;;;3.05;0.95;;;26.80;66.60;;;;;;4150129;28;20091;-56
2021/01/31 10:20:07;;;;;;;3.90;0.85;;;26.80;66.60;;;;;;4146030;28;20394;-53
2021/01/31 10:22:24;;;;;;;4.03;1.23;;;26.80;66.60;;;;;;4148834;28;20052;-50
2021/01/31 10:24:30;;;;;;;2.55;0.93;;;26.80;66.70;;;;;;4143641;28;20049;-53
2021/01/31 10:26:32;;;;;;;4.93;1.13;;;26.80;66.70;;;;;;4147965;28;20057;-54
2021/01/31 10:28:45;;;;;;;2.08;0.93;;;26.80;66.70;;;;;;4152068;28;20124;-53
2021/01/31 10:30:50;;;;;;;2.00;1.02;;;26.80;66.60;;;;;;4148513;28;20121;-53
2021/01/31 10:32:53;;;;;;;5.95;1.10;;;26.80;66.60;;;;;;4150483;28;20034;-52
2021/01/31 10:34:56;;;;;;;2.60;0.73;;;26.70;66.60;;;;;;4145841;28;20046;-53
2021/01/31 10:37:12;;;;;;;6.25;1.23;;;26.70;66.60;;;;;;4143892;28;20030;-54
2021/01/31 10:39:15;;;;;;;1.40;0.80;;;26.70;66.60;;;;;;4147848;28;20431;-51
2021/01/31 10:41:17;;;;;;;2.03;0.98;;;26.70;66.60;;;;;;4146144;28;20467;-57
2021/01/31 10:43:20;;;;;;;3.05;0.70;;;26.70;66.60;;;;;;4157349;28;20160;-56
2021/01/31 10:45:24;;;;;;;;;;;26.70;66.60;;;;;;4155248;28;20133;-57
2021/01/31 10:47:26;;;;;;;4.30;1.23;;;26.70;66.70;;;;;;4152655;28;19967;-58
2021/01/31 10:49:28;;;;;;;4.30;0.90;;;26.70;66.80;;;;;;4149782;28;20116;-56
2021/01/31 10:51:33;;;;;;;5.00;1.10;;;26.70;66.80;;;;;;4147903;28;20033;-58
2021/01/31 10:53:36;;;;;;;8.43;1.73;;;26.70;66.70;;;;;;4150301;28;20089;-58
2021/01/31 10:55:38;;;;;;;5.50;1.08;;;26.80;66.80;;;;;;4154661;28;20062;-57
2021/01/31 10:57:40;;;;;;;5.38;1.00;;;26.70;66.70;;;;;;4159845;28;20028;-56
2021/01/31 10:59:42;;;;;;;4.35;1.25;;;26.80;66.80;;;;;;4149958;28;20042;-55
2021/01/31 11:01:48;;;;;;;3.55;1.25;;;26.70;66.70;;;;;;4152899;28;20050;-54
2021/01/31 11:03:51;;;;;;;10.38;1.80;;;26.70;66.60;;;;;;4156124;28;20059;-56
2021/01/31 11:05:53;;;;;;;7.22;2.25;;;;;;;;;;4160762;28;20472;-51
2021/01/31 11:07:55;;;;;;;5.45;1.40;;;26.70;66.50;;;;;;4150697;28;20613;-56
2021/01/31 11:09:58;;;;;;;4.15;1.27;;;26.60;66.80;;;;;;4152044;28;20511;-56
2021/01/31 11:12:00;;;;;;;4.57;1.17;;;26.50;67.00;;;;;;4143681;28;20061;-56
2021/01/31 11:14:02;;;;;;;2.80;1.00;;;26.50;67.80;;;;;;4148833;28;20554;-58
2021/01/31 11:16:05;;;;;;;8.63;1.52;;;26.50;67.30;;;;;;4140913;28;20041;-58